Data for 01/10/2016

Time Sea-Level Adjusted Pressure Absolute Pressure Temperature Relative Humidity Dew Point   
(mb) (inHg) (mb) (inHg) (C) (F) (%) (C) (F)
00:05 1019 30.09 848 25.04 -3.1 26.4 61 -9.6 14.7
00:10 1019 30.09 848 25.04 -3.1 26.5 61 -9.5 14.9
00:15 1019 30.09 848 25.04 -3.1 26.4 62 -9.5 14.9
00:20 1019 30.09 848 25.04 -3.2 26.3 62 -9.6 14.8
00:25 1019 30.09 848 25.04 -3.2 26.2 62 -9.5 14.9
00:30 1019 30.09 848 25.04 -3.3 26.1 62 -9.5 14.9
00:35 1019 30.09 848 25.04 -3.3 26.1 62 -9.5 15
00:40 1019 30.09 848 25.04 -3.3 26.1 63 -9.5 15
00:45 1019 30.09 849 25.07 -3.3 26.1 62 -9.5 14.9
00:50 1019 30.09 849 25.07 -3.3 26.1 62 -9.6 14.8
00:55 1019 30.09 849 25.07 -3.3 26 63 -9.5 14.9
01:00 1019 30.09 848 25.04 -3.4 25.9 62 -9.6 14.8
01:05 1019 30.09 848 25.04 -3.4 25.8 63 -9.5 14.8
01:10 1019 30.09 848 25.04 -3.5 25.8 64 -9.4 15.1
01:15 1019 30.09 848 25.04 -3.5 25.7 64 -9.3 15.2
01:20 1019 30.09 848 25.04 -3.6 25.6 65 -9.2 15.5
01:25 1019 30.09 848 25.04 -3.7 25.3 66 -9.3 15.3
01:30 1019 30.09 849 25.07 -3.9 25 66 -9.3 15.3
01:35 1019 30.09 848 25.04 -3.9 25 66 -9.3 15.3
01:40 1019 30.09 848 25.04 -3.9 25 65 -9.5 14.9
01:45 1019 30.09 848 25.04 -3.9 25 66 -9.4 15.1
01:50 1019 30.09 848 25.04 -4 24.9 66 -9.4 15.1
01:55 1019 30.09 848 25.04 -4 24.8 67 -9.3 15.3
02:00 1019 30.09 849 25.07 -4.3 24.3 67 -9.6 14.7
02:05 1019 30.09 849 25.07 -4.4 24 67 -9.6 14.7
02:10 1019 30.09 849 25.07 -4.3 24.2 66 -9.8 14.4
02:15 1019 30.09 849 25.07 -4.4 24 66 -9.9 14.2
02:20 1019 30.09 849 25.07 -4.6 23.7 65 -10.3 13.5
02:25 1019 30.09 849 25.07 -4.4 24.1 65 -10.1 13.8
02:30 1019 30.09 849 25.07 -4.4 24 63 -10.5 13
02:35 1019 30.09 849 25.07 -4.5 24 63 -10.5 13.1
02:40 1019 30.09 849 25.07 -4.1 24.5 62 -10.3 13.4
02:45 1019 30.09 849 25.07 -4.1 24.6 63 -10.1 13.9
02:50 1019 30.09 849 25.07 -4.1 24.6 60 -10.8 12.5
02:55 1019 30.09 849 25.07 -4.1 24.6 60 -10.8 12.5
03:00 1020 30.12 849 25.07 -4.2 24.4 59 -11.2 11.9
03:05 1020 30.12 849 25.07 -4.2 24.4 58 -11.2 11.8
03:10 1020 30.12 849 25.07 -4.2 24.4 58 -11.2 11.8
03:15 1020 30.12 849 25.07 -4.2 24.4 58 -11.3 11.7
03:20 1020 30.12 849 25.07 -4.3 24.3 58 -11.4 11.5
03:25 1020 30.12 849 25.07 -4.4 24.1 59 -11.3 11.6
03:30 1020 30.12 849 25.07 -4.3 24.2 59 -11.2 11.8
03:35 1020 30.12 849 25.07 -4.3 24.2 59 -11.2 11.9
03:40 1020 30.12 849 25.07 -4.3 24.3 60 -11 12.2
03:45 1020 30.12 849 25.07 -4.3 24.4 60 -11 12.3
03:50 1020 30.12 849 25.07 -4.3 24.2 61 -10.7 12.8
03:55 1020 30.12 849 25.07 -4.5 23.9 61 -10.9 12.5
04:00 1020 30.12 849 25.07 -4.6 23.7 62 -10.7 12.7
04:05 1020 30.12 849 25.07 -4.6 23.7 61 -10.9 12.3
04:10 1020 30.12 849 25.07 -4.7 23.5 63 -10.8 12.6
04:15 1020 30.12 849 25.07 -4.8 23.4 64 -10.6 12.9
04:20 1020 30.12 850 25.1 -5 23 63 -10.9 12.4
04:25 1020 30.12 850 25.1 -5 23 64 -10.8 12.6
04:30 1020 30.12 849 25.07 -5 22.9 64 -10.8 12.6
04:35 1020 30.12 849 25.07 -5.2 22.7 65 -10.8 12.6
04:40 1020 30.12 849 25.07 -5 23 64 -10.8 12.6
04:45 1020 30.12 849 25.07 -5 23 64 -10.9 12.4
04:50 1020 30.12 849 25.07 -4.8 23.4 62 -11 12.2
04:55 1020 30.12 849 25.07 -4.9 23.3 63 -10.8 12.6
05:00 1020 30.12 849 25.07 -5 23 63 -11 12.2
05:05 1020 30.12 849 25.07 -4.9 23.2 63 -11 12.2
05:10 1020 30.12 849 25.07 -4.8 23.4 62 -11 12.2
05:15 1020 30.12 849 25.07 -4.7 23.6 61 -11.2 11.9
05:20 1020 30.12 849 25.07 -4.6 23.8 61 -10.9 12.3
05:25 1020 30.12 849 25.07 -4.5 23.9 61 -11 12.3
05:30 1020 30.12 849 25.07 -4.4 24.1 60 -11 12.2
05:35 1020 30.12 849 25.07 -4.4 24.1 61 -10.9 12.4
05:40 1020 30.12 849 25.07 -4.4 24.1 61 -10.8 12.6
05:45 1020 30.12 849 25.07 -4.3 24.2 60 -11 12.2
05:50 1020 30.12 850 25.1 -4.4 24.1 60 -10.9 12.3
05:55 1020 30.12 849 25.07 -4.4 24.1 60 -10.9 12.3
06:00 1020 30.12 850 25.1 -4.4 24.1 59 -11.2 11.9
06:05 1020 30.12 850 25.1 -4.6 23.8 59 -11.3 11.6
06:10 1020 30.12 850 25.1 -4.7 23.5 60 -11.3 11.7
06:15 1020 30.12 849 25.07 -4.7 23.5 60 -11.3 11.6
06:20 1020 30.12 849 25.07 -4.7 23.5 59 -11.6 11.2
06:25 1020 30.12 849 25.07 -4.8 23.4 59 -11.7 10.9
06:30 1020 30.12 849 25.07 -4.9 23.3 60 -11.6 11.2
06:35 1020 30.12 850 25.1 -4.9 23.1 60 -11.6 11.2
06:40 1020 30.12 850 25.1 -5 22.9 60 -11.7 10.9
06:45 1020 30.12 849 25.07 -5.1 22.9 60 -11.6 11.1
06:50 1020 30.12 849 25.07 -5.1 22.8 60 -11.6 11.1
06:55 1020 30.12 849 25.07 -5.2 22.6 62 -11.5 11.3
07:00 1020 30.12 849 25.07 -5.4 22.3 62 -11.6 11.1
07:05 1020 30.12 849 25.07 -5.6 22 62 -11.7 11
07:10 1020 30.12 849 25.07 -5.8 21.6 62 -11.9 10.7
07:15 1020 30.12 850 25.1 -5.9 21.4 62 -12 10.3
07:20 1020 30.12 850 25.1 -6 21.2 63 -11.9 10.5
07:25 1020 30.12 850 25.1 -6.1 21 63 -12.2 10.1
07:30 1020 30.12 850 25.1 -6.3 20.7 61 -12.6 9.4
07:35 1021 30.15 850 25.1 -6.5 20.3 61 -12.8 9
07:40 1021 30.15 850 25.1 -6.7 20 61 -13 8.5
07:45 1021 30.15 850 25.1 -7 19.4 60 -13.4 7.9
07:50 1021 30.15 850 25.1 -7.2 19 61 -13.6 7.6
07:55 1021 30.15 850 25.1 -7.6 18.4 62 -13.7 7.3
08:00 1021 30.15 850 25.1 -7.6 18.4 62 -13.8 7.2
08:05 1021 30.15 850 25.1 -7.4 18.6 61 -13.8 7.2
08:10 1021 30.15 850 25.1 -7.3 18.9 61 -13.6 7.5
08:15 1021 30.15 850 25.1 -7.3 18.9 61 -13.5 7.7
08:20 1021 30.15 850 25.1 -6.9 19.5 62 -13.1 8.5
08:25 1021 30.15 850 25.1 -7 19.4 65 -12.5 9.5
08:30 1021 30.15 850 25.1 -7 19.5 64 -12.6 9.3
08:35 1021 30.15 850 25.1 -6.7 20 64 -12.5 9.6
08:40 1021 30.15 850 25.1 -6.6 20.2 64 -12.4 9.7
08:45 1021 30.15 850 25.1 -6.8 19.8 66 -12.2 10
08:50 1021 30.15 850 25.1 -7.2 19.1 66 -12.5 9.4
08:55 1021 30.15 850 25.1 -7 19.4 64 -12.7 9.2
09:00 1021 30.15 850 25.1 -7.2 19.1 64 -12.9 8.9
09:05 1021 30.15 850 25.1 -7.2 19.1 65 -12.7 9.2
09:10 1021 30.15 850 25.1 -7.6 18.3 67 -12.8 9
09:15 1021 30.15 850 25.1 -7.8 18.1 67 -12.8 8.9
09:20 1021 30.15 850 25.1 -8.1 17.3 70 -12.7 9.2
09:25 1021 30.15 850 25.1 -7.9 17.7 67 -13.1 8.4
09:30 1021 30.15 850 25.1 -7.5 18.5 65 -13 8.6
09:35 1021 30.15 850 25.1 -7.7 18.1 67 -12.9 8.8
09:40 1021 30.15 850 25.1 -8 17.6 69 -12.7 9.1
09:45 1021 30.15 850 25.1 -8.1 17.4 67 -13.2 8.2
09:50 1021 30.15 850 25.1 -8 17.6 65 -13.5 7.8
09:55 1021 30.15 850 25.1 -7.8 18 65 -13.3 8
10:00 1021 30.15 850 25.1 -7.6 18.3 64 -13.2 8.2
10:05 1021 30.15 850 25.1 -7.6 18.3 64 -13.3 8.1
10:10 1021 30.15 851 25.13 -7.7 18.2 65 -13 8.5
10:15 1021 30.15 851 25.13 -7.6 18.3 66 -13 8.6
10:20 1022 30.18 851 25.13 -7.6 18.3 66 -12.8 8.9
10:25 1022 30.18 851 25.13 -7.5 18.5 63 -13.3 8.1
10:30 1022 30.18 851 25.13 -7.5 18.4 65 -13 8.6
10:35 1022 30.18 851 25.13 -7 19.4 62 -13.1 8.4
10:40 1022 30.18 851 25.13 -6.7 20 63 -12.5 9.4
10:45 1022 30.18 851 25.13 -6.4 20.6 61 -12.7 9.2
10:50 1022 30.18 851 25.13 -6.2 20.8 61 -12.6 9.3
10:55 1022 30.18 851 25.13 -6.3 20.6 60 -12.8 9
11:00 1022 30.18 851 25.13 -6.4 20.4 61 -12.7 9.2
11:05 1022 30.18 851 25.13 -6.3 20.7 62 -12.4 9.6
11:10 1022 30.18 851 25.13 -6.2 20.9 62 -12.4 9.7
11:15 1022 30.18 851 25.13 -6.1 21 61 -12.5 9.4
11:20 1022 30.18 851 25.13 -6 21.1 60 -12.6 9.4
11:25 1022 30.18 851 25.13 -5.9 21.5 60 -12.4 9.7
11:30 1022 30.18 851 25.13 -5.2 22.7 57 -12.3 9.8
11:35 1022 30.18 851 25.13 -5 23 58 -12.1 10.2
11:40 1022 30.18 851 25.13 -4.9 23.3 58 -11.9 10.6
11:45 1022 30.18 851 25.13 -4.9 23.2 59 -11.8 10.8
11:50 1022 30.18 851 25.13 -4.4 24 56 -11.8 10.7
11:55 1022 30.18 851 25.13 -4.5 24 58 -11.5 11.2
12:00 1022 30.18 851 25.13 -4.4 24 56 -11.9 10.6
12:05 1021 30.15 851 25.13 -4.2 24.4 55 -11.9 10.6
12:10 1021 30.15 851 25.13 -4 24.8 55 -11.9 10.6
12:15 1021 30.15 851 25.13 -3.3 26 52 -11.8 10.8
12:20 1021 30.15 851 25.13 -2.7 27.1 50 -11.7 10.9
12:25 1021 30.15 851 25.13 -1.9 28.6 48 -11.6 11.1
12:30 1021 30.15 851 25.13 -1.7 29 46 -11.7 10.9
12:35 1021 30.15 851 25.13 -1.9 28.6 47 -11.9 10.6
12:40 1021 30.15 851 25.13 -1.8 28.7 48 -11.6 11.2
12:45 1021 30.15 851 25.13 -2.1 28.2 48 -11.6 11.1
12:50 1021 30.15 850 25.1 -2.7 27.1 49 -11.9 10.5
12:55 1021 30.15 850 25.1 -2.2 28.1 47 -12 10.4
13:00 1021 30.15 850 25.1 -2 28.3 48 -11.6 11
13:05 1021 30.15 850 25.1 -2.2 28.1 49 -11.5 11.3
13:10 1021 30.15 850 25.1 -1.4 29.4 46 -11.6 11.1
13:15 1021 30.15 850 25.1 -1.3 29.6 47 -11.2 11.8
13:20 1021 30.15 850 25.1 -2 28.4 50 -11.2 11.9
13:25 1021 30.15 851 25.13 -2.8 27 50 -11.8 10.8
13:30 1021 30.15 851 25.13 -2.5 27.5 49 -11.9 10.6
13:35 1021 30.15 851 25.13 -2.5 27.5 50 -11.7 11
13:40 1021 30.15 851 25.13 -2.6 27.4 50 -11.5 11.3
13:45 1021 30.15 851 25.13 -3.1 26.4 52 -11.7 10.9
13:50 1021 30.15 851 25.13 -2.9 26.7 51 -11.7 11
13:55 1021 30.15 851 25.13 -2.9 26.7 52 -11.5 11.3
14:00 1021 30.15 851 25.13 -2.7 27.1 50 -11.7 10.9
14:05 1021 30.15 851 25.13 -3 26.7 52 -11.5 11.2
14:10 1021 30.15 851 25.13 -3.5 25.7 55 -11.4 11.5
14:15 1021 30.15 851 25.13 -3.7 25.4 53 -11.8 10.7
14:20 1021 30.15 851 25.13 -3.7 25.3 53 -12 10.4
14:25 1021 30.15 851 25.13 -3.3 26.1 53 -11.6 11.1
14:30 1021 30.15 851 25.13 -3.1 26.4 51 -11.9 10.6
14:35 1021 30.15 851 25.13 -2.8 27 48 -12.4 9.7
14:40 1021 30.15 851 25.13 -2.7 27.2 50 -11.8 10.7
14:45 1022 30.18 851 25.13 -3.1 26.4 52 -11.7 11
14:50 1022 30.18 851 25.13 -3.2 26.3 50 -12.1 10.2
14:55 1022 30.18 851 25.13 -3.1 26.4 52 -11.6 11
15:00 1022 30.18 851 25.13 -3.2 26.2 51 -12 10.5
15:05 1022 30.18 851 25.13 -2.7 27.2 49 -12.1 10.2
15:10 1022 30.18 851 25.13 -2.4 27.7 48 -11.9 10.5
15:15 1022 30.18 851 25.13 -1.9 28.5 48 -11.7 11
15:20 1022 30.18 851 25.13 -2.1 28.2 50 -11.1 12
15:25 1022 30.18 851 25.13 -3.2 26.3 53 -11.5 11.2
15:30 1021 30.15 851 25.13 -3.7 25.4 53 -11.9 10.7
15:35 1021 30.15 851 25.13 -3.8 25.1 56 -11.5 11.4
15:40 1022 30.18 851 25.13 -4.2 24.5 56 -11.8 10.8
15:45 1022 30.18 851 25.13 -4.2 24.4 55 -11.9 10.5
15:50 1022 30.18 851 25.13 -4.5 24 56 -11.9 10.5
15:55 1022 30.18 851 25.13 -4.5 23.9 57 -11.8 10.7
16:00 1022 30.18 851 25.13 -4.7 23.6 57 -12 10.4
16:05 1022 30.18 851 25.13 -4.5 24 55 -12.1 10.2
16:10 1022 30.18 851 25.13 -3.8 25.1 52 -12.3 9.8
16:15 1022 30.18 851 25.13 -3.3 26.1 52 -11.8 10.7
16:20 1022 30.18 851 25.13 -3.6 25.6 54 -11.7 11
16:25 1022 30.18 851 25.13 -3.9 25 54 -11.8 10.7
16:30 1022 30.18 851 25.13 -4.2 24.4 55 -12 10.4
16:35 1022 30.18 851 25.13 -4.3 24.3 55 -12 10.3
16:40 1022 30.18 851 25.13 -4.3 24.2 55 -12.1 10.3
16:45 1022 30.18 851 25.13 -4.2 24.4 55 -12 10.4
16:50 1022 30.18 851 25.13 -3.6 25.6 52 -12 10.3
16:55 1022 30.18 851 25.13 -3.5 25.7 53 -11.8 10.8
17:00 1022 30.18 851 25.13 -3.6 25.5 53 -11.8 10.8
17:05 1022 30.18 851 25.13 -3.3 26 51 -12 10.4
17:10 1022 30.18 851 25.13 -3.2 26.2 51 -12 10.5
17:15 1022 30.18 851 25.13 -3.3 26.1 54 -11.4 11.5
17:20 1022 30.18 851 25.13 -3.2 26.2 51 -12 10.5
17:25 1022 30.18 851 25.13 -3 26.5 51 -11.8 10.7
17:30 1022 30.18 851 25.13 -4 24.7 55 -11.7 10.9
17:35 1022 30.18 851 25.13 -4.7 23.5 56 -12.2 10
17:40 1022 30.18 851 25.13 -4.9 23.1 57 -12.2 10
17:45 1022 30.18 851 25.13 -5 22.9 57 -12.4 9.7
17:50 1021 30.15 851 25.13 -5 23 57 -12.3 9.9
17:55 1021 30.15 851 25.13 -5.3 22.5 58 -12.3 9.8
18:00 1021 30.15 851 25.13 -5.2 22.6 58 -12.3 9.8
18:05 1021 30.15 851 25.13 -5 23 57 -12.3 9.9
18:10 1021 30.15 851 25.13 -5.1 22.9 57 -12.3 9.9
18:15 1021 30.15 850 25.1 -5 23 57 -12.3 9.9
18:20 1021 30.15 850 25.1 -5 23 58 -12.1 10.2
18:25 1021 30.15 850 25.1 -5 22.9 58 -12.2 10.1
18:30 1021 30.15 850 25.1 -5 22.9 58 -12 10.4
18:35 1021 30.15 850 25.1 -5.1 22.9 58 -12.1 10.3
18:40 1021 30.15 850 25.1 -5.2 22.7 58 -12.2 10.1
18:45 1021 30.15 850 25.1 -5.5 22.1 59 -12.3 9.9
18:50 1021 30.15 850 25.1 -5.8 21.6 59 -12.6 9.3
18:55 1021 30.15 850 25.1 -6.1 21 61 -12.5 9.5
19:00 1021 30.15 850 25.1 -6.1 21.1 60 -12.7 9.1
19:05 1021 30.15 850 25.1 -5.8 21.5 60 -12.4 9.6
19:10 1021 30.15 850 25.1 -6.2 20.9 61 -12.6 9.4
19:15 1021 30.15 850 25.1 -6.4 20.5 61 -12.7 9.2
19:20 1021 30.15 850 25.1 -6.4 20.5 62 -12.4 9.7
19:25 1021 30.15 850 25.1 -6.7 20 63 -12.6 9.4
19:30 1021 30.15 850 25.1 -6.9 19.6 63 -12.7 9.1
19:35 1021 30.15 850 25.1 -6.8 19.7 62 -13 8.7
19:40 1021 30.15 850 25.1 -6.9 19.6 62 -13 8.6
19:45 1021 30.15 850 25.1 -6.7 20 61 -13.1 8.4
19:50 1021 30.15 850 25.1 -6.8 19.8 61 -13.1 8.4
19:55 1021 30.15 851 25.13 -7 19.3 63 -12.9 8.8
20:00 1021 30.15 851 25.13 -6.7 20 61 -13 8.7
20:05 1021 30.15 851 25.13 -6.7 19.9 60 -13.1 8.4
20:10 1021 30.15 851 25.13 -6.6 20.1 63 -12.6 9.4
20:15 1021 30.15 851 25.13 -6.5 20.4 61 -12.8 9
20:20 1021 30.15 851 25.13 -6.8 19.8 61 -13.2 8.2
20:25 1021 30.15 851 25.13 -6.7 19.9 60 -13.3 8
20:30 1022 30.18 851 25.13 -6.9 19.6 60 -13.3 8
20:35 1022 30.18 851 25.13 -7.1 19.2 62 -13.2 8.3
20:40 1021 30.15 851 25.13 -7.2 19 64 -13 8.6
20:45 1021 30.15 851 25.13 -7.5 18.4 66 -12.8 8.9
20:50 1022 30.18 851 25.13 -7.6 18.3 67 -12.8 9
20:55 1022 30.18 851 25.13 -7.6 18.3 67 -12.8 8.9
21:00 1021 30.15 851 25.13 -7.7 18.2 67 -12.8 8.9
21:05 1021 30.15 851 25.13 -7.7 18.2 66 -12.9 8.8
21:10 1022 30.18 851 25.13 -7.5 18.6 65 -12.9 8.8
21:15 1022 30.18 851 25.13 -7.5 18.6 65 -12.9 8.7
21:20 1022 30.18 851 25.13 -7.4 18.7 65 -13 8.7
21:25 1022 30.18 851 25.13 -7.6 18.4 65 -13 8.6
21:30 1022 30.18 851 25.13 -7.4 18.7 64 -13.1 8.5
21:35 1022 30.18 851 25.13 -7.4 18.8 63 -13.2 8.3
21:40 1022 30.18 851 25.13 -7.4 18.6 64 -13.1 8.5
21:45 1022 30.18 851 25.13 -7.4 18.7 64 -13 8.6
21:50 1022 30.18 851 25.13 -7.5 18.5 64 -13.1 8.5
21:55 1022 30.18 851 25.13 -7.5 18.5 66 -12.9 8.8
22:00 1022 30.18 851 25.13 -7.6 18.4 64 -13.3 8
22:05 1022 30.18 851 25.13 -8.4 16.9 68 -13.4 7.9
22:10 1022 30.18 851 25.13 -8.7 16.3 69 -13.5 7.7
22:15 1022 30.18 851 25.13 -8.6 16.5 68 -13.5 7.7
22:20 1022 30.18 851 25.13 -8.3 17.1 67 -13.3 8
22:25 1022 30.18 851 25.13 -8 17.7 66 -13.3 8.1
22:30 1022 30.18 851 25.13 -7.9 17.8 67 -13 8.5
22:35 1022 30.18 851 25.13 -8.1 17.5 67 -13.1 8.4
22:40 1022 30.18 851 25.13 -8.4 16.9 70 -13 8.6
22:45 1022 30.18 851 25.13 -8.7 16.4 68 -13.6 7.5
22:50 1022 30.18 851 25.13 -8.7 16.3 68 -13.7 7.4
22:55 1022 30.18 851 25.13 -8.4 17 66 -13.7 7.4
23:00 1022 30.18 851 25.13 -8.6 16.4 67 -13.7 7.3
23:05 1022 30.18 851 25.13 -9 15.8 69 -13.6 7.5
23:10 1022 30.18 851 25.13 -8.9 16 69 -13.6 7.5
23:15 1022 30.18 851 25.13 -9.1 15.6 68 -14 6.8
23:20 1022 30.18 851 25.13 -9.3 15.2 72 -13.5 7.7
23:25 1022 30.18 851 25.13 -9.4 15.1 68 -14.1 6.5
23:30 1022 30.18 851 25.13 -9.4 15.2 71 -13.6 7.5
23:35 1022 30.18 852 25.16 -9.1 15.7 67 -14 6.7
23:40 1022 30.18 851 25.13 -9.3 15.4 68 -14.2 6.5
23:45 1022 30.18 851 25.13 -9.5 14.9 68 -14.3 6.2
23:50 1022 30.18 852 25.16 -9.3 15.3 70 -13.7 7.3
23:55 1022 30.18 852 25.16 -9.2 15.5 69 -13.8 7.1
24:00 1022 30.18 852 25.16 -9.1 15.6 68 -14 6.8